Time;durP1;ratioP1;P1;durP2;ratioP2;P2;SDS_P1;SDS_P2;PMS_P1;PMS_P2;Temp;Humidity;BMP_temperature;BMP_pressure;BME280_temperature;BME280_humidity;BME280_pressure;Samples;Min_cycle;Max_cycle;Signal;HPM_P1;HPM_P2
2023/04/08 00:00:50;;;;;;;2.10;0.60;;;;;;;18.87;37.02;102168.56;16121587;19;129221;-44
2023/04/08 00:06:12;;;;;;;2.58;0.65;;;;;;;18.84;36.72;102169.88;16118454;19;131532;-45
2023/04/08 00:11:34;;;;;;;2.15;0.63;;;;;;;18.83;36.87;102178.41;16118571;19;130687;-43
2023/04/08 00:16:56;;;;;;;1.50;0.45;;;;;;;18.81;36.65;102175.00;16116004;19;130097;-47
2023/04/08 00:22:19;;;;;;;1.58;0.63;;;;;;;18.79;36.59;102171.59;16111615;19;129942;-46
2023/04/08 00:27:40;;;;;;;6.18;0.65;;;;;;;18.76;36.61;102161.78;16112784;19;131386;-44
2023/04/08 00:33:03;;;;;;;1.20;0.47;;;;;;;18.75;36.65;102173.94;16116982;19;132242;-43
2023/04/08 00:38:25;;;;;;;1.45;0.50;;;;;;;18.72;37.09;102182.69;16115777;19;130394;-43
2023/04/08 00:43:47;;;;;;;2.47;0.50;;;;;;;18.70;36.78;102177.38;16118129;19;131355;-44
2023/04/08 00:49:09;;;;;;;2.22;0.55;;;;;;;18.68;36.68;102176.72;16116375;19;129942;-44
2023/04/08 00:54:31;;;;;;;3.53;0.55;;;;;;;18.67;36.84;102180.56;16115332;19;131724;-44
2023/04/08 00:59:53;;;;;;;0.82;0.50;;;;;;;18.65;36.92;102179.94;16115232;19;129568;-46
2023/04/08 01:05:27;;;;;;;2.22;0.70;;;;;;;18.65;36.71;102188.25;16110634;19;130635;-45
2023/04/08 01:10:57;;;;;;;1.85;0.70;;;;;;;18.64;36.80;102185.69;16112365;19;129846;-46
2023/04/08 01:16:21;;;;;;;1.27;0.50;;;;;;;18.62;36.89;102188.66;16110808;19;130051;-44
2023/04/08 01:21:44;;;;;;;1.10;0.60;;;;;;;18.60;36.71;102190.78;16108511;19;129599;-45
2023/04/08 01:27:07;;;;;;;1.25;0.40;;;;;;;18.59;37.12;102186.31;16107780;19;130724;-43
2023/04/08 01:32:31;;;;;;;1.50;0.30;;;;;;;18.58;36.91;102190.19;16105827;19;131017;-44
2023/04/08 01:37:54;;;;;;;1.20;0.50;;;;;;;18.55;36.70;102191.44;16107853;19;129359;-45
2023/04/08 01:43:17;;;;;;;2.13;0.32;;;;;;;18.53;36.78;102190.81;16105058;19;129396;-44
2023/04/08 01:48:40;;;;;;;0.45;0.38;;;;;;;18.51;37.05;102187.41;16105367;19;130563;-46
2023/04/08 01:54:02;;;;;;;0.95;0.30;;;;;;;18.50;37.08;102194.03;16110022;19;134224;-45
2023/04/08 01:59:30;;;;;;;1.13;0.38;;;;;;;18.49;37.20;102194.22;15950246;19;3007241;-45
2023/04/08 02:04:53;;;;;;;1.17;0.32;;;;;;;18.47;37.15;102205.53;16114320;19;130461;-45
2023/04/08 02:10:15;;;;;;;1.02;0.32;;;;;;;18.45;37.14;102203.00;16111201;19;130524;-46
2023/04/08 02:15:43;;;;;;;1.52;0.40;;;;;;;18.44;36.88;102206.81;16109600;19;130512;-46
2023/04/08 02:21:12;;;;;;;0.93;0.35;;;;;;;18.43;37.00;102199.56;16111442;19;131693;-49
2023/04/08 02:26:37;;;;;;;1.40;0.30;;;;;;;18.41;36.93;102198.94;16109681;19;129390;-44
2023/04/08 02:32:00;;;;;;;1.07;0.63;;;;;;;18.40;37.09;102190.84;16109027;19;129496;-44
2023/04/08 02:37:23;;;;;;;1.05;0.30;;;;;;;18.38;37.22;102199.31;16105549;19;131585;-44
2023/04/08 02:42:45;;;;;;;0.57;0.20;;;;;;;18.37;36.81;102197.59;16106160;19;129888;-45
2023/04/08 02:48:07;;;;;;;1.17;0.30;;;;;;;18.35;36.99;102205.28;16105997;19;129843;-44
2023/04/08 02:53:28;;;;;;;0.65;0.30;;;;;;;18.35;36.72;102204.44;16108052;19;130655;-45
2023/04/08 02:58:51;;;;;;;0.75;0.40;;;;;;;18.34;36.79;102208.28;16118027;19;129894;-47
2023/04/08 03:04:13;;;;;;;1.23;0.32;;;;;;;18.30;37.33;102203.16;16123485;19;129584;-49
2023/04/08 03:09:34;;;;;;;0.60;0.30;;;;;;;18.30;36.84;102213.41;16121976;19;130091;-45
2023/04/08 03:14:56;;;;;;;0.95;0.40;;;;;;;18.29;37.25;102217.22;16120338;19;131152;-45
2023/04/08 03:20:18;;;;;;;0.88;0.22;;;;;;;18.29;37.16;102222.75;16123118;19;130049;-50
2023/04/08 03:25:40;;;;;;;0.28;0.15;;;;;;;18.28;36.86;102226.59;16118967;19;132483;-45
2023/04/08 03:31:03;;;;;;;0.52;0.30;;;;;;;18.25;36.94;102215.94;16120741;19;129814;-45
2023/04/08 03:36:25;;;;;;;0.95;0.40;;;;;;;18.24;36.84;102219.75;16117605;19;131305;-47
2023/04/08 03:41:47;;;;;;;1.50;0.50;;;;;;;18.22;37.02;102222.75;16122122;19;133022;-44
2023/04/08 03:47:09;;;;;;;2.17;0.47;;;;;;;18.22;37.19;102232.97;16118585;19;131321;-45
2023/04/08 03:52:31;;;;;;;0.68;0.30;;;;;;;18.20;37.34;102232.34;16115327;19;131047;-46
2023/04/08 03:57:53;;;;;;;0.30;0.13;;;;;;;18.19;37.29;102238.97;16117286;19;130994;-44
2023/04/08 04:03:15;;;;;;;1.30;0.30;;;;;;;18.18;37.15;102242.78;16119962;19;129502;-45
2023/04/08 04:08:37;;;;;;;0.77;0.38;;;;;;;18.17;37.17;102238.31;16112507;19;132097;-48
2023/04/08 04:13:59;;;;;;;0.57;0.35;;;;;;;18.15;37.01;102228.28;16119256;19;130386;-43
2023/04/08 04:19:21;;;;;;;0.22;0.20;;;;;;;18.14;37.00;102232.13;16115697;19;129479;-44
2023/04/08 04:24:47;;;;;;;0.90;0.30;;;;;;;18.12;36.89;102223.16;16117393;19;130265;-46
2023/04/08 04:30:14;;;;;;;1.77;0.80;;;;;;;18.12;37.13;102223.16;16117957;19;130183;-44
2023/04/08 04:35:38;;;;;;;2.70;0.70;;;;;;;18.10;36.98;102230.00;16117433;19;129549;-44
2023/04/08 04:41:00;;;;;;;2.28;0.80;;;;;;;18.09;36.98;102229.13;16115760;19;131313;-45
2023/04/08 04:46:22;;;;;;;1.95;0.60;;;;;;;18.09;36.84;102242.13;16115312;19;133832;-43
2023/04/08 04:51:44;;;;;;;1.70;0.43;;;;;;;18.07;36.90;102247.91;16118282;19;132579;-46
2023/04/08 04:57:06;;;;;;;3.22;0.40;;;;;;;18.07;37.29;102261.75;16112361;19;130587;-49
2023/04/08 05:02:28;;;;;;;1.65;0.80;;;;;;;18.06;37.07;102265.56;16113350;19;130906;-45
2023/04/08 05:07:50;;;;;;;1.95;0.50;;;;;;;18.05;37.27;102268.53;16113356;19;130727;-48
2023/04/08 05:13:12;;;;;;;1.15;0.70;;;;;;;18.04;37.25;102269.59;16111756;19;129828;-43
2023/04/08 05:18:34;;;;;;;1.85;0.50;;;;;;;18.03;36.87;102279.00;16111421;19;131617;-43
2023/04/08 05:23:56;;;;;;;1.63;0.47;;;;;;;18.03;37.30;102274.28;16114563;19;129886;-42
2023/04/08 05:29:20;;;;;;;7.68;0.73;;;;;;;18.02;36.97;102278.13;16113513;19;130916;-43
2023/04/08 05:34:43;;;;;;;12.07;1.00;;;;;;;18.04;37.23;102277.91;16115069;19;135572;-42
2023/04/08 05:40:05;;;;;;;7.93;1.00;;;;;;;18.26;37.15;102273.03;16108047;19;132144;-44
2023/04/08 05:45:28;;;;;;;9.50;1.15;;;;;;;18.74;36.88;102280.34;16111279;19;134494;-43
2023/04/08 05:50:50;;;;;;;6.88;1.40;;;;;;;19.17;36.21;102287.34;16111041;19;131137;-43
2023/04/08 05:56:12;;;;;;;4.43;1.00;;;;;;;19.41;36.35;102290.50;16111991;19;130906;-45
2023/04/08 06:01:34;;;;;;;6.47;0.85;;;;;;;19.50;36.11;102275.31;16109950;19;129935;-47
2023/04/08 06:06:58;;;;;;;6.43;0.85;;;;;;;19.50;36.44;102289.19;16110207;19;129637;-44
2023/04/08 06:12:20;;;;;;;6.32;1.00;;;;;;;19.49;36.11;102287.47;16111198;19;130829;-44
2023/04/08 06:17:42;;;;;;;9.07;1.17;;;;;;;19.43;36.44;102305.03;16110825;19;133183;-44
2023/04/08 06:23:04;;;;;;;14.70;1.40;;;;;;;19.37;36.58;102312.28;16104947;19;130938;-44
2023/04/08 06:28:28;;;;;;;13.43;1.30;;;;;;;19.31;36.50;102318.69;16115476;19;129489;-46
2023/04/08 06:33:51;;;;;;;7.57;1.10;;;;;;;19.22;36.62;102331.94;16123631;19;130942;-45
2023/04/08 06:39:14;;;;;;;8.63;1.20;;;;;;;19.14;36.99;102340.47;16126625;19;129407;-46
2023/04/08 06:44:36;;;;;;;6.80;1.40;;;;;;;19.06;37.24;102350.72;16125342;19;130461;-44
2023/04/08 06:49:58;;;;;;;12.95;1.35;;;;;;;18.98;37.01;102359.25;16126144;19;129619;-43
2023/04/08 06:55:20;;;;;;;10.98;1.67;;;;;;;18.89;37.29;102353.06;16125541;19;129882;-45
2023/04/08 07:00:42;;;;;;;3.63;1.00;;;;;;;18.83;37.13;102358.63;16124638;19;131625;-45
2023/04/08 07:06:04;;;;;;;6.13;1.33;;;;;;;18.81;37.50;102363.53;16123349;19;129067;-43
2023/04/08 07:11:26;;;;;;;6.35;1.00;;;;;;;18.88;37.66;102369.91;16124919;19;130144;-46
2023/04/08 07:16:48;;;;;;;5.55;1.20;;;;;;;18.97;37.68;102374.19;16121550;19;130288;-44
2023/04/08 07:22:10;;;;;;;6.40;1.00;;;;;;;19.05;37.20;102379.53;16124043;19;130951;-45
2023/04/08 07:27:33;;;;;;;4.88;1.42;;;;;;;19.14;37.28;102384.84;16121033;19;131914;-43
2023/04/08 07:32:56;;;;;;;5.63;1.17;;;;;;;19.19;36.92;102393.41;16125022;19;128983;-45
2023/04/08 07:38:21;;;;;;;3.97;0.90;;;;;;;19.25;37.17;102400.03;16119296;19;131104;-44
2023/04/08 07:43:43;;;;;;;3.78;1.30;;;;;;;19.42;37.15;102401.28;16121743;19;129743;-44
2023/04/08 07:49:05;;;;;;;6.50;1.10;;;;;;;19.72;36.62;102395.25;16121721;19;131266;-44
2023/04/08 07:54:27;;;;;;;7.13;1.00;;;;;;;19.97;36.18;102403.72;16122475;19;134670;-42
2023/04/08 07:59:49;;;;;;;3.40;0.70;;;;;;;20.17;36.08;102404.72;16124412;19;129486;-42
2023/04/08 08:05:11;;;;;;;4.75;1.00;;;;;;;20.33;35.76;102403.34;16120481;19;129971;-47
2023/04/08 08:10:33;;;;;;;2.60;0.73;;;;;;;20.42;35.53;102410.38;16123813;19;130675;-44
2023/04/08 08:15:55;;;;;;;3.67;1.13;;;;;;;20.48;35.48;102412.25;16124446;19;129496;-45
2023/04/08 08:21:17;;;;;;;4.43;1.10;;;;;;;20.47;35.23;102418.88;16120891;19;129725;-44
2023/04/08 08:26:39;;;;;;;4.28;1.10;;;;;;;20.42;35.34;102425.13;16122343;19;130471;-43
2023/04/08 08:32:02;;;;;;;3.53;1.42;;;;;;;20.34;35.52;102430.06;16121790;19;130371;-43
2023/04/08 08:37:24;;;;;;;3.40;1.23;;;;;;;20.24;35.47;102439.75;16125855;19;129582;-45
2023/04/08 08:42:53;;;;;;;4.43;1.83;;;;;;;20.26;35.37;102433.97;16123012;19;131564;-44
2023/04/08 08:48:16;;;;;;;4.65;1.42;;;;;;;20.18;35.37;102437.00;16121170;19;129383;-44
2023/04/08 08:53:39;;;;;;;3.42;1.50;;;;;;;20.12;35.83;102447.91;16119834;19;130686;-44
2023/04/08 08:59:01;;;;;;;4.13;1.70;;;;;;;20.07;35.60;102449.63;16120317;19;130394;-44
2023/04/08 09:04:23;;;;;;;6.18;1.73;;;;;;;20.08;35.57;102448.56;16117339;19;132146;-49
2023/04/08 09:09:50;;;;;;;7.03;2.17;;;;;;;20.09;35.46;102447.50;16120240;19;131568;-46
2023/04/08 09:15:11;;;;;;;7.55;2.17;;;;;;;20.07;35.63;102446.84;16121845;19;130124;-43
2023/04/08 09:20:33;;;;;;;4.70;1.88;;;;;;;20.05;35.68;102451.81;16115541;19;129818;-43
2023/04/08 09:26:06;;;;;;;4.18;2.00;;;;;;;20.02;35.78;102452.25;16116566;19;131320;-43
2023/04/08 09:31:30;;;;;;;4.75;2.45;;;;;;;19.97;35.76;102456.47;16114351;19;131131;-43
2023/04/08 09:36:53;;;;;;;5.22;2.85;;;;;;;19.95;35.77;102457.78;16114616;19;130511;-43
2023/04/08 09:42:18;;;;;;;7.68;4.03;;;;;;;19.87;35.77;102455.25;16116868;19;130727;-43
2023/04/08 09:48:00;;;;;;;11.27;5.07;;;;;;;19.78;36.00;102457.41;16112541;19;130518;-46
2023/04/08 09:53:33;;;;;;;25.25;6.63;;;;;;;19.66;35.49;102455.28;16112125;19;130854;-43
2023/04/08 09:59:01;;;;;;;21.02;7.07;;;;;;;19.59;35.55;102457.19;16109662;19;130952;-45
2023/04/08 10:04:28;;;;;;;20.58;7.75;;;;;;;19.55;35.39;102447.63;16110414;19;131142;-42
2023/04/08 10:09:50;;;;;;;25.38;8.63;;;;;;;19.56;35.71;102449.31;16127935;19;130045;-43
2023/04/08 10:15:25;;;;;;;29.77;8.32;;;;;;;19.63;35.54;102449.31;16133210;19;129592;-45
2023/04/08 10:20:48;;;;;;;26.92;8.00;;;;;;;19.66;35.60;102441.41;16129914;19;130457;-47
2023/04/08 10:26:30;;;;;;;32.35;11.48;;;;;;;19.77;35.84;102452.91;16127422;19;129654;-42
2023/04/08 10:31:52;;;;;;;32.40;11.85;;;;;;;19.83;36.08;102449.25;16125975;19;130437;-46
2023/04/08 10:37:14;;;;;;;25.83;10.18;;;;;;;19.87;35.87;102444.97;16122466;19;129665;-44
2023/04/08 10:42:37;;;;;;;19.90;9.95;;;;;;;19.90;35.87;102461.22;16121710;19;130391;-44
2023/04/08 10:48:17;;;;;;;22.10;10.77;;;;;;;19.92;36.19;102458.22;16125885;19;130567;-43
2023/04/08 10:53:39;;;;;;;18.58;9.65;;;;;;;19.91;35.91;102459.28;16124687;19;130510;-45
2023/04/08 10:59:02;;;;;;;21.15;8.98;;;;;;;19.90;36.09;102460.34;16124178;19;131394;-44
2023/04/08 11:04:24;;;;;;;15.00;8.52;;;;;;;19.90;36.07;102455.66;16126121;19;129580;-43
2023/04/08 11:09:48;;;;;;;15.93;8.52;;;;;;;19.88;35.65;102463.34;16125391;19;130918;-43
2023/04/08 11:15:12;;;;;;;15.57;9.50;;;;;;;19.88;35.73;102463.34;16126305;19;130575;-44
2023/04/08 11:20:35;;;;;;;15.52;9.05;;;;;;;19.88;35.23;102462.50;16121016;19;129354;-46
2023/04/08 11:25:58;;;;;;;15.82;9.35;;;;;;;19.91;34.64;102457.38;16121639;19;130856;-44
2023/04/08 11:31:21;;;;;;;16.45;8.05;;;;;;;19.97;34.54;102447.31;16119752;19;132054;-45
2023/04/08 11:36:45;;;;;;;;;;;;;;;20.03;34.87;102445.63;16118836;19;131113;-44
2023/04/08 11:42:07;;;;;;;17.50;7.85;;;;;;;20.09;34.82;102448.38;16116407;19;131922;-46
2023/04/08 11:47:33;;;;;;;14.00;7.03;;;;;;;20.16;34.75;102447.47;16121032;19;131154;-44
2023/04/08 11:52:55;;;;;;;22.65;7.13;;;;;;;20.15;34.65;102452.19;16115924;19;130562;-47
2023/04/08 11:58:17;;;;;;;12.52;6.40;;;;;;;20.14;34.63;102444.94;16121980;19;131176;-46
2023/04/08 12:03:53;;;;;;;14.43;6.22;;;;;;;20.10;35.04;102447.31;16121324;19;130129;-47
2023/04/08 12:09:16;;;;;;;11.10;5.75;;;;;;;20.06;35.14;102439.63;16121292;19;129914;-47
2023/04/08 12:14:38;;;;;;;11.60;5.40;;;;;;;20.01;35.04;102436.63;16121840;19;129493;-46
2023/04/08 12:20:01;;;;;;;13.88;5.47;;;;;;;19.94;35.29;102429.13;16120641;19;131018;-44
2023/04/08 12:25:22;;;;;;;10.02;4.95;;;;;;;19.89;35.36;102436.41;16117420;19;129511;-43
2023/04/08 12:30:45;;;;;;;10.32;5.15;;;;;;;19.84;35.26;102425.97;16118300;19;129342;-45
2023/04/08 12:36:07;;;;;;;7.70;4.93;;;;;;;19.78;35.36;102430.47;16121066;19;131665;-46
2023/04/08 12:41:31;;;;;;;11.95;4.30;;;;;;;19.75;35.41;102419.81;16114939;19;129496;-46
2023/04/08 12:46:53;;;;;;;7.05;4.28;;;;;;;19.74;35.29;102412.56;16122677;19;130716;-43
2023/04/08 12:52:16;;;;;;;7.97;3.83;;;;;;;19.74;35.73;102409.78;16120622;19;129436;-43
2023/04/08 12:57:38;;;;;;;8.07;4.85;;;;;;;19.74;35.20;102400.59;16117035;19;129499;-44
2023/04/08 13:03:00;;;;;;;8.02;5.07;;;;;;;19.77;35.04;102400.16;16115400;19;131024;-47
2023/04/08 13:08:22;;;;;;;6.90;4.85;;;;;;;19.79;35.36;102398.00;16112610;19;130429;-46
2023/04/08 13:13:45;;;;;;;6.88;4.10;;;;;;;19.81;35.09;102405.03;16115348;19;129585;-44
2023/04/08 13:19:07;;;;;;;8.23;4.45;;;;;;;19.85;35.05;102402.69;16116782;19;131088;-45
2023/04/08 13:24:29;;;;;;;4.97;3.50;;;;;;;19.92;35.16;102397.97;16116156;19;129438;-45
2023/04/08 13:29:51;;;;;;;9.45;3.78;;;;;;;19.98;35.83;102385.97;16116679;19;129523;-43
2023/04/08 13:35:13;;;;;;;13.10;3.63;;;;;;;20.06;35.80;102384.06;16115406;19;129567;-46
2023/04/08 13:40:35;;;;;;;5.45;3.55;;;;;;;20.08;35.54;102387.44;16113704;19;130931;-45
2023/04/08 13:45:57;;;;;;;5.97;3.15;;;;;;;20.10;35.46;102374.19;16111237;19;130102;-45
2023/04/08 13:51:19;;;;;;;8.40;3.75;;;;;;;20.05;35.43;102385.97;16111539;19;129853;-48
2023/04/08 13:56:41;;;;;;;9.32;3.70;;;;;;;20.01;35.40;102394.97;16112156;19;129879;-45
2023/04/08 14:02:03;;;;;;;14.43;3.30;;;;;;;19.98;35.67;102385.97;16110528;19;131010;-50
2023/04/08 14:07:25;;;;;;;7.63;2.97;;;;;;;19.97;36.00;102384.25;16109243;19;130384;-46
2023/04/08 14:12:47;;;;;;;10.60;3.28;;;;;;;19.96;35.74;102382.56;16111380;19;129967;-46
2023/04/08 14:18:09;;;;;;;5.10;2.70;;;;;;;19.96;35.69;102373.38;16107706;19;129668;-47
2023/04/08 14:23:31;;;;;;;6.25;2.70;;;;;;;19.93;36.05;102380.25;16108331;19;130666;-43
2023/04/08 14:28:53;;;;;;;9.25;3.22;;;;;;;19.91;36.10;102367.63;16108693;19;130096;-45
2023/04/08 14:34:15;;;;;;;22.58;5.43;;;;;;;19.82;35.23;102375.34;16111128;19;129322;-44
2023/04/08 14:39:37;;;;;;;23.98;7.97;;;;;;;19.68;33.51;102369.84;16105869;19;131130;-42
2023/04/08 14:44:59;;;;;;;21.33;7.22;;;;;;;19.56;32.82;102366.06;16108046;19;129608;-42
2023/04/08 14:50:21;;;;;;;12.38;7.03;;;;;;;19.48;31.91;102363.50;16108881;19;130063;-44
2023/04/08 14:55:43;;;;;;;9.52;6.90;;;;;;;19.41;31.53;102366.28;16122467;19;130932;-43
2023/04/08 15:01:05;;;;;;;9.68;6.57;;;;;;;19.34;31.45;102352.41;16117638;19;130439;-41
2023/04/08 15:06:27;;;;;;;10.40;6.15;;;;;;;19.32;31.20;102362.88;16123316;19;135407;-42
2023/04/08 15:11:49;;;;;;;8.50;5.75;;;;;;;19.32;29.85;102353.72;16121347;19;130647;-47
2023/04/08 15:17:11;;;;;;;8.48;5.50;;;;;;;19.42;29.17;102353.28;16120852;19;130566;-43
2023/04/08 15:22:33;;;;;;;5.95;4.88;;;;;;;19.59;28.79;102351.72;16112606;19;130327;-42
2023/04/08 15:27:55;;;;;;;7.53;4.65;;;;;;;19.78;28.42;102360.22;16120621;19;129659;-42
2023/04/08 15:33:18;;;;;;;5.45;4.65;;;;;;;19.92;28.30;102342.41;16120545;19;129415;-41
2023/04/08 15:38:40;;;;;;;6.97;4.32;;;;;;;20.09;27.90;102339.16;16122687;19;129588;-44
2023/04/08 15:44:02;;;;;;;6.40;4.03;;;;;;;20.20;27.97;102344.00;16122396;19;129515;-41
2023/04/08 15:49:24;;;;;;;5.68;4.03;;;;;;;20.29;27.63;102348.25;16117819;19;129608;-42
2023/04/08 15:54:46;;;;;;;8.20;4.60;;;;;;;20.34;27.40;102343.91;16114288;19;130802;-45
2023/04/08 16:00:09;;;;;;;8.90;4.10;;;;;;;20.31;27.12;102339.66;16123801;19;131178;-42
2023/04/08 16:05:34;;;;;;;6.13;3.03;;;;;;;20.36;27.65;102350.09;16114180;19;131060;-42
2023/04/08 16:11:01;;;;;;;4.45;3.05;;;;;;;20.37;28.36;102343.47;16115767;19;129755;-42
2023/04/08 16:16:23;;;;;;;5.20;3.00;;;;;;;20.35;28.55;102340.94;16087636;19;131556;-43
2023/04/08 16:21:45;;;;;;;8.68;2.65;;;;;;;20.37;29.36;102337.91;16103024;19;130299;-41
2023/04/08 16:27:07;;;;;;;12.00;3.58;;;;;;;20.37;29.59;102332.38;16099289;19;130811;-44
2023/04/08 16:32:29;;;;;;;9.45;2.45;;;;;;;20.37;29.49;102349.03;16115469;19;129828;-44
2023/04/08 16:37:51;;;;;;;9.30;3.00;;;;;;;20.35;30.08;102343.72;16119729;19;130022;-41
2023/04/08 16:43:13;;;;;;;8.20;2.53;;;;;;;20.32;30.06;102344.16;16114003;19;130301;-42
2023/04/08 16:48:37;;;;;;;12.45;2.88;;;;;;;20.27;30.06;102347.59;16117868;19;130682;-44
2023/04/08 16:54:00;;;;;;;6.55;2.30;;;;;;;20.22;30.24;102352.13;16117726;19;131397;-42
2023/04/08 16:59:21;;;;;;;6.97;2.10;;;;;;;20.16;30.97;102350.22;16115740;19;129553;-41
2023/04/08 17:04:48;;;;;;;8.15;2.75;;;;;;;20.10;30.91;102343.63;16117063;19;129806;-42
2023/04/08 17:10:10;;;;;;;8.20;2.33;;;;;;;20.03;30.85;102346.44;16112871;19;130684;-45
2023/04/08 17:15:35;;;;;;;9.02;2.67;;;;;;;19.96;31.32;102340.03;16110344;19;130875;-41
2023/04/08 17:20:57;;;;;;;10.13;3.00;;;;;;;19.86;31.34;102354.41;16111296;19;130150;-42
2023/04/08 17:26:21;;;;;;;6.18;2.92;;;;;;;19.79;31.39;102356.34;16114808;19;129720;-42
2023/04/08 17:31:43;;;;;;;7.85;3.03;;;;;;;19.74;30.96;102357.03;16112030;19;131759;-44
2023/04/08 17:37:05;;;;;;;5.43;2.58;;;;;;;19.76;31.08;102359.56;16115978;19;130075;-42
2023/04/08 17:42:27;;;;;;;5.30;2.25;;;;;;;19.90;31.37;102361.22;16112052;19;130277;-42
2023/04/08 17:47:49;;;;;;;9.15;2.60;;;;;;;20.13;31.42;102359.88;16112868;19;131027;-44
2023/04/08 17:53:11;;;;;;;6.97;2.20;;;;;;;20.37;31.25;102360.16;16111648;19;130842;-41
2023/04/08 17:58:33;;;;;;;12.15;3.63;;;;;;;20.58;30.74;102361.72;16114624;19;130623;-42
2023/04/08 18:03:55;;;;;;;10.82;2.50;;;;;;;20.76;30.92;102363.78;16111579;19;129251;-45
2023/04/08 18:09:17;;;;;;;3.30;1.70;;;;;;;20.90;30.83;102368.16;16113311;19;130819;-47
2023/04/08 18:14:39;;;;;;;3.70;1.73;;;;;;;21.03;30.78;102372.75;16113007;19;129698;-43
2023/04/08 18:20:01;;;;;;;5.07;1.98;;;;;;;21.13;30.54;102379.72;16113359;19;131917;-41
2023/04/08 18:25:23;;;;;;;3.90;1.50;;;;;;;21.19;30.96;102379.66;16111833;19;129945;-42
2023/04/08 18:30:49;;;;;;;3.10;1.50;;;;;;;21.22;31.14;102390.34;16128171;19;131260;-43
2023/04/08 18:36:12;;;;;;;5.70;1.73;;;;;;;21.19;31.05;102390.78;16122546;19;129615;-43
2023/04/08 18:41:36;;;;;;;5.07;1.85;;;;;;;21.10;31.44;102397.72;16121533;19;129877;-43
2023/04/08 18:46:57;;;;;;;5.93;1.70;;;;;;;21.02;31.78;102389.66;16124357;19;130861;-42
2023/04/08 18:52:19;;;;;;;15.82;3.20;;;;;;;20.91;31.85;102399.59;16122669;19;129899;-42
2023/04/08 18:57:41;;;;;;;19.15;3.10;;;;;;;20.81;32.33;102399.25;16121228;19;131858;-41
2023/04/08 19:03:03;;;;;;;21.23;2.88;;;;;;;20.71;32.54;102405.25;16120538;19;130142;-48
2023/04/08 19:08:28;;;;;;;35.27;2.90;;;;;;;20.66;32.33;102402.31;16119767;19;131483;-43
2023/04/08 19:13:50;;;;;;;33.08;3.25;;;;;;;20.63;32.49;102400.81;16120750;19;130837;-42
2023/04/08 19:19:12;;;;;;;21.42;2.80;;;;;;;20.57;32.59;102404.50;16123780;19;130497;-46
2023/04/08 19:24:35;;;;;;;19.40;3.13;;;;;;;20.51;32.92;102414.59;16120143;19;129438;-44
2023/04/08 19:29:57;;;;;;;19.95;2.33;;;;;;;20.43;33.21;102412.94;16122311;19;131626;-42
2023/04/08 19:35:19;;;;;;;12.43;1.90;;;;;;;20.35;33.24;102409.56;16120672;19;129719;-45
2023/04/08 19:40:41;;;;;;;13.02;2.35;;;;;;;20.28;33.31;102426.25;16120658;19;130097;-43
2023/04/08 19:46:03;;;;;;;11.23;2.17;;;;;;;20.21;33.90;102431.84;16119866;19;130022;-45
2023/04/08 19:51:26;;;;;;;11.95;2.33;;;;;;;20.15;33.61;102424.41;16118284;19;131646;-43
2023/04/08 19:56:48;;;;;;;16.02;2.28;;;;;;;20.10;34.03;102421.41;16118765;19;129556;-45
2023/04/08 20:02:10;;;;;;;10.02;1.88;;;;;;;20.06;34.19;102425.75;16122784;19;132101;-42
2023/04/08 20:07:32;;;;;;;14.43;2.53;;;;;;;20.03;34.36;102421.44;16119232;19;129371;-40
2023/04/08 20:12:54;;;;;;;7.70;2.10;;;;;;;20.01;34.32;102431.09;16120173;19;129858;-44
2023/04/08 20:18:16;;;;;;;19.48;2.28;;;;;;;19.94;34.23;102431.91;16119251;19;130133;-45
2023/04/08 20:23:42;;;;;;;10.57;2.20;;;;;;;19.89;34.59;102441.97;16116412;19;131187;-45
2023/04/08 20:29:05;;;;;;;10.55;2.33;;;;;;;19.83;34.68;102444.56;16114941;19;129185;-43
2023/04/08 20:34:27;;;;;;;12.18;2.20;;;;;;;19.78;34.32;102446.28;16114799;19;132576;-44
2023/04/08 20:39:49;;;;;;;6.30;2.08;;;;;;;19.74;34.51;102448.66;16113139;19;130139;-48
2023/04/08 20:45:11;;;;;;;12.35;2.13;;;;;;;19.67;34.58;102451.44;16116730;19;129837;-44
2023/04/08 20:50:33;;;;;;;8.85;2.20;;;;;;;19.64;34.68;102457.41;16116326;19;129980;-44
2023/04/08 20:55:55;;;;;;;11.25;2.30;;;;;;;19.59;34.61;102448.88;16117637;19;130983;-46
2023/04/08 21:01:17;;;;;;;9.77;2.30;;;;;;;19.56;34.39;102452.09;16115337;19;131681;-41
2023/04/08 21:06:39;;;;;;;5.15;1.60;;;;;;;19.52;34.82;102443.34;16116727;19;130407;-43
2023/04/08 21:12:01;;;;;;;7.45;2.53;;;;;;;19.48;34.83;102447.63;16117034;19;131608;-42
2023/04/08 21:17:24;;;;;;;6.63;1.73;;;;;;;19.44;35.04;102449.13;16113088;19;130459;-44
2023/04/08 21:22:45;;;;;;;6.82;2.00;;;;;;;19.40;34.98;102447.00;16116321;19;129457;-43
2023/04/08 21:28:08;;;;;;;11.35;2.03;;;;;;;19.36;35.06;102455.72;16118887;19;129458;-44
2023/04/08 21:33:29;;;;;;;5.70;1.80;;;;;;;19.32;34.93;102448.06;16114724;19;131026;-41
2023/04/08 21:38:51;;;;;;;6.25;1.75;;;;;;;19.27;34.72;102440.38;16116443;19;129319;-42
2023/04/08 21:44:14;;;;;;;2.85;1.65;;;;;;;19.25;34.90;102452.75;16117181;19;129985;-42
2023/04/08 21:49:36;;;;;;;4.45;1.80;;;;;;;19.21;35.21;102446.75;16112703;19;130720;-44
2023/04/08 21:54:58;;;;;;;7.20;2.10;;;;;;;19.17;35.27;102446.31;16112072;19;130675;-45
2023/04/08 22:00:20;;;;;;;8.98;1.92;;;;;;;19.15;34.82;102453.16;16112123;19;130162;-45
2023/04/08 22:05:42;;;;;;;5.05;1.95;;;;;;;19.13;35.06;102450.59;16129202;19;130313;-43
2023/04/08 22:11:09;;;;;;;3.20;1.83;;;;;;;19.10;35.15;102451.00;16132087;19;131024;-43
2023/04/08 22:16:31;;;;;;;4.25;2.00;;;;;;;19.07;35.06;102456.97;16127976;19;130566;-42
2023/04/08 22:21:53;;;;;;;4.50;1.73;;;;;;;19.06;34.85;102455.28;16125593;19;129568;-43
2023/04/08 22:27:15;;;;;;;4.82;1.90;;;;;;;19.03;34.86;102451.00;16129624;19;130321;-43
2023/04/08 22:32:37;;;;;;;4.45;1.88;;;;;;;19.01;35.01;102453.13;16127088;19;129715;-45
2023/04/08 22:37:59;;;;;;;3.70;2.00;;;;;;;18.97;34.98;102451.84;16129151;19;131545;-43
2023/04/08 22:43:21;;;;;;;7.70;3.20;;;;;;;18.95;35.18;102437.34;16128511;19;130114;-42
2023/04/08 22:48:43;;;;;;;3.90;2.20;;;;;;;18.95;35.19;102437.34;16124287;19;129522;-48
2023/04/08 22:54:05;;;;;;;3.33;2.10;;;;;;;18.97;35.12;102435.19;16122759;19;131934;-47
2023/04/08 22:59:27;;;;;;;2.88;2.00;;;;;;;18.99;35.24;102435.84;16124917;19;133990;-45
2023/04/08 23:04:53;;;;;;;4.30;2.47;;;;;;;19.02;35.09;102440.97;16125532;19;130764;-48
2023/04/08 23:10:15;;;;;;;;;;;;;;;19.00;35.03;102442.25;16124866;19;130679;-43
2023/04/08 23:15:37;;;;;;;3.78;1.92;;;;;;;19.01;35.51;102443.97;16122199;19;130201;-45
2023/04/08 23:20:58;;;;;;;4.97;1.98;;;;;;;18.98;35.35;102436.06;16125242;19;129309;-44
2023/04/08 23:26:21;;;;;;;5.18;1.70;;;;;;;18.94;35.38;102430.09;16124836;19;129623;-46
2023/04/08 23:31:43;;;;;;;3.83;2.15;;;;;;;18.90;35.53;102429.63;16125447;19;129773;-43
2023/04/08 23:37:05;;;;;;;4.43;2.30;;;;;;;18.89;35.41;102432.63;16124554;19;129855;-43
2023/04/08 23:42:27;;;;;;;3.97;2.50;;;;;;;18.86;35.45;102436.69;16122002;19;130828;-46
2023/04/08 23:47:49;;;;;;;3.28;2.22;;;;;;;18.83;35.31;102434.34;16121437;19;131796;-47
2023/04/08 23:53:11;;;;;;;3.35;2.00;;;;;;;18.82;35.53;102438.19;16122154;19;130574;-43
2023/04/08 23:58:33;;;;;;;2.78;2.40;;;;;;;18.80;35.47;102436.69;16122313;19;130186;-45
